YSWG/WGA METAR and TAF weather

Enter ICAO airport designator
Station Type Date Time Source
YSWG METAR 2021/05/10 01:00 UTC NOAA

YSWG 100100Z AUTO 33005KT 9999 // NCD 19/13 Q1015


Station Type Date Time Source
YSWG Decoded METAR 2021/05/10 01:00 UTC NOAA

Wagga Airport, Australia (YSWG) 35-09S 147-27E 213M
May 09, 2021 - 09:00 PM EDT / 2021.05.10 0100 UTC
Wind: from the NNW (330 degrees) at 6 MPH (5 KT):0
Visibility: greater than 7 mile(s):0
Temperature: 66 F (19 C)
Dew Point: 55 F (13 C)
Relative Humidity: 68%
Pressure (altimeter): 29.97 in. Hg (1015 hPa)
ob: YSWG 100100Z AUTO 33005KT 9999 // NCD 19/13 Q1015
cycle: 1

Station Type Date Time Source
YSWG TAF 2018/05/25 18:03 UTC NOAA

TAF YSWG 251649Z 2518/2608 07008KT CAVOK

Example: see airport list